Terminal Aerodrome Forecast
Issued by NWS

Home | Current Version | Previous Version | Text Only | Print | Product List | Glossary On
Versions: 1 2 3 4 5 6 7 8 9 10 11 12 13
000
FTUS45 KREV 162300 RRA
TAFMMH
TAF
KMMH 162353Z 1700/1724 24015G26KT P6SM FEW100
     FM170400 VRB04KT P6SM FEW200
     FM172100 23015G28KT P6SM FEW200
      AMD NOT SKED 1702/1714=

USA.gov is the U.S. government's official web portal to all federal, state and local government web resources and services.